Homeland, California
Current Conditions -  °F | °C
As of 1:55 AM on Tuesday 21 Oct 2014 (Local Time) from KF70 Reporting Station
Overcast Overcast  
Wind Chill: 61°   Ceiling: 500
Heat Index: 61°   Visibility: 5mi
Dew Point: 59°   Wind: 0mph
Humidity: 94%   Direction: NA
Pressure: 29.93"   Gusts: NA
Location:  33.74°N, 117.11°W
Report Text: KF70 210855Z AUTO 00000KT 5SM OVC005 16/15 A2993 RMK AO1
Loading
Personal Weather Stations






























Interactive Weather Map
Tropical Storm Tracking
New forecast layout! Learn more

10-Day Weather Forecast

Advertisements
Track Severe Weather on mobile